createdAt,value
2018-02-08T16:59:24.585Z,23.30
2018-02-08T17:01:52.884Z,22.97
2018-02-08T17:04:21.147Z,21.40
2018-02-08T17:06:49.397Z,20.43
2018-02-08T17:09:17.739Z,29.00
2018-02-08T17:11:45.946Z,26.40
2018-02-08T17:14:14.208Z,25.90
2018-02-08T17:16:42.472Z,24.43
2018-02-08T17:19:10.724Z,24.07
2018-02-08T17:21:39.385Z,21.00
2018-02-08T17:24:07.787Z,21.33
2018-02-08T17:26:37.111Z,21.20
2018-02-08T17:29:05.594Z,20.73
2018-02-08T17:31:35.344Z,21.40
2018-02-08T17:34:03.594Z,21.93
2018-02-08T17:36:32.011Z,20.40
2018-02-08T17:39:00.443Z,21.30
2018-02-08T17:41:28.713Z,19.93
2018-02-08T17:43:58.088Z,20.90
2018-02-08T17:46:26.388Z,20.57
2018-02-08T17:48:54.613Z,20.97
2018-02-08T17:51:23.967Z,20.07
2018-02-08T17:53:52.262Z,20.33
2018-02-08T17:56:20.500Z,19.73
2018-02-08T17:58:48.765Z,18.53
2018-02-08T18:01:17.019Z,21.30
2018-02-08T18:03:46.209Z,22.40
2018-02-08T18:06:14.496Z,21.43
2018-02-08T18:08:42.924Z,22.50
2018-02-08T18:11:11.204Z,22.00
2018-02-08T18:13:39.473Z,22.13
2018-02-08T18:16:07.778Z,22.17
2018-02-08T18:18:36.177Z,21.63
2018-02-08T18:21:05.240Z,20.83
2018-02-08T18:23:33.737Z,24.30
2018-02-08T18:26:02.049Z,24.07
2018-02-08T18:28:30.289Z,20.93
2018-02-08T18:30:58.580Z,23.03
2018-02-08T18:33:26.870Z,24.20
2018-02-08T18:35:56.737Z,20.40
2018-02-08T18:38:25.851Z,23.93
2018-02-08T18:40:54.307Z,23.33
2018-02-08T18:43:23.436Z,23.93
2018-02-08T18:45:51.848Z,22.03
2018-02-08T18:48:20.360Z,23.87
2018-02-08T18:50:53.491Z,26.90
2018-02-08T18:53:21.767Z,25.93
2018-02-08T18:55:50.060Z,25.07
2018-02-08T18:58:18.343Z,27.03
2018-02-08T19:00:46.596Z,24.63
2018-02-08T19:03:15.006Z,25.40
2018-02-08T19:05:43.424Z,24.60
2018-02-08T19:08:13.565Z,24.30
2018-02-08T19:10:42.029Z,26.77
2018-02-08T19:13:10.411Z,23.37
2018-02-08T19:15:40.334Z,24.30
2018-02-08T19:18:09.167Z,29.07
2018-02-08T19:20:38.273Z,24.03
2018-02-08T19:23:06.516Z,24.63
2018-02-08T19:25:34.804Z,23.00
2018-02-08T19:28:03.156Z,24.50
2018-02-08T19:30:32.260Z,24.27
2018-02-08T19:33:00.564Z,23.60
2018-02-08T19:35:29.621Z,25.70
2018-02-08T19:37:58.353Z,23.07
2018-02-08T19:40:26.610Z,25.27
2018-02-08T19:42:55.029Z,24.03
2018-02-08T19:45:23.300Z,24.80
2018-02-08T19:47:52.362Z,25.13
2018-02-08T19:50:20.898Z,24.73
2018-02-08T19:52:49.137Z,25.20
2018-02-08T19:55:17.413Z,26.80
2018-02-08T19:57:46.625Z,24.13
2018-02-08T20:00:14.944Z,24.87
2018-02-08T20:02:43.202Z,26.03
2018-02-08T20:05:12.268Z,26.83
2018-02-08T20:07:40.588Z,25.87
2018-02-08T20:10:09.720Z,27.50
2018-02-08T20:12:38.040Z,27.50
2018-02-08T20:15:08.753Z,25.93
2018-02-08T20:17:37.868Z,27.37
2018-02-08T20:20:06.965Z,25.57
2018-02-08T20:22:36.935Z,26.83
2018-02-08T20:25:05.223Z,27.03
2018-02-08T20:27:33.526Z,24.90
2018-02-08T20:30:01.771Z,26.40
2018-02-08T20:32:31.620Z,27.37
2018-02-08T20:34:59.914Z,28.10
2018-02-08T20:37:28.934Z,26.80
2018-02-08T20:39:57.202Z,26.67
2018-02-08T20:42:31.221Z,24.73
2018-02-08T20:44:59.670Z,24.90
2018-02-08T20:47:28.073Z,29.80
2018-02-08T20:50:02.113Z,29.00
2018-02-08T20:52:30.405Z,28.63
2018-02-08T20:54:58.667Z,30.10
2018-02-08T20:57:26.967Z,29.57
2018-02-08T20:59:55.289Z,28.77
2018-02-08T21:02:23.729Z,31.27
2018-02-08T21:04:51.964Z,30.77
2018-02-08T21:07:20.328Z,28.57
2018-02-08T21:09:49.042Z,28.43
2018-02-08T21:12:17.277Z,29.70
2018-02-08T21:14:45.940Z,26.90
2018-02-08T21:17:14.317Z,29.13
2018-02-08T21:19:42.572Z,28.00
2018-02-08T21:22:10.848Z,27.53
2018-02-08T21:24:39.155Z,29.00
2018-02-08T21:27:07.425Z,25.63
2018-02-08T21:29:35.741Z,27.40
2018-02-08T21:32:04.021Z,27.90
2018-02-08T21:34:33.210Z,28.67
2018-02-08T21:37:02.308Z,27.70
2018-02-08T21:39:30.558Z,27.93
2018-02-08T21:41:59.696Z,28.37
2018-02-08T21:44:27.950Z,27.23
2018-02-08T21:46:57.255Z,28.57
2018-02-08T21:49:25.676Z,27.73
2018-02-08T21:51:54.004Z,28.10
2018-02-08T21:54:23.044Z,27.20
2018-02-08T21:56:51.305Z,27.33
2018-02-08T21:59:19.543Z,26.70
2018-02-08T22:01:48.757Z,27.10
2018-02-08T22:04:17.048Z,28.30
2018-02-08T22:06:45.279Z,27.07
2018-02-08T22:09:14.512Z,28.33
2018-02-08T22:11:42.758Z,27.90
2018-02-08T22:14:11.009Z,29.27
2018-02-08T22:16:39.266Z,25.73
2018-02-08T22:19:07.530Z,24.73
2018-02-08T22:21:35.816Z,27.20
2018-02-08T22:24:04.109Z,26.50
2018-02-08T22:26:33.334Z,25.23
2018-02-08T22:29:02.521Z,25.30
2018-02-08T22:31:30.970Z,24.00
2018-02-08T22:33:59.243Z,24.93
2018-02-08T22:36:27.652Z,23.53
2018-02-08T22:38:56.038Z,27.13
2018-02-08T22:41:24.282Z,25.03
2018-02-08T22:43:52.518Z,23.90
2018-02-08T22:46:20.790Z,25.53
2018-02-08T22:48:49.190Z,26.40
2018-02-08T22:51:20.337Z,27.47
2018-02-08T22:53:49.065Z,25.47
2018-02-08T22:56:18.948Z,25.63
2018-02-08T22:58:47.204Z,26.43
2018-02-08T23:01:15.455Z,25.90
2018-02-08T23:03:44.681Z,29.10
2018-02-08T23:06:12.925Z,27.57
2018-02-08T23:08:41.168Z,25.70
2018-02-08T23:11:09.465Z,28.13
2018-02-08T23:13:37.798Z,26.43
2018-02-08T23:16:06.047Z,27.93
2018-02-08T23:18:34.377Z,26.37
2018-02-08T23:21:03.192Z,26.70
2018-02-08T23:23:32.225Z,27.80
2018-02-08T23:26:00.531Z,27.70
2018-02-08T23:28:28.842Z,25.70
2018-02-08T23:30:57.948Z,26.33
2018-02-08T23:33:26.221Z,27.33
2018-02-08T23:35:55.245Z,28.00
2018-02-08T23:38:23.527Z,28.73
2018-02-08T23:40:51.781Z,26.03
2018-02-08T23:43:20.919Z,24.70
2018-02-08T23:45:49.224Z,26.40
2018-02-08T23:48:17.435Z,27.77
2018-02-08T23:50:45.700Z,26.87
2018-02-08T23:53:13.964Z,25.83
2018-02-08T23:55:42.999Z,28.67
2018-02-08T23:58:11.268Z,27.57
